Time;durP1;ratioP1;P1;durP2;ratioP2;P2;SDS_P1;SDS_P2;PMS_P1;PMS_P2;Temp;Humidity;BMP_temperature;BMP_pressure;BME280_temperature;BME280_humidity;BME280_pressure;Samples;Min_cycle;Max_cycle;Signal;HPM_P1;HPM_P2
2022/03/18 00:00:17;;;;;;;15.10;4.90;;;3.90;99.90;;;;;;5022954;28;20440;-73
2022/03/18 00:02:44;;;;;;;11.10;3.95;;;3.80;99.90;;;;;;5038396;28;20053;-73
2022/03/18 00:05:11;;;;;;;12.50;4.25;;;3.80;99.90;;;;;;5048509;28;20094;-73
2022/03/18 00:07:38;;;;;;;9.70;3.83;;;3.80;99.90;;;;;;5022028;28;20087;-73
2022/03/18 00:10:07;;;;;;;15.27;4.47;;;3.80;99.90;;;;;;5029254;28;20076;-73
2022/03/18 00:12:33;;;;;;;10.80;4.07;;;3.70;99.90;;;;;;5056420;28;20074;-73
2022/03/18 00:14:59;;;;;;;14.27;4.55;;;3.70;99.90;;;;;;5057062;28;20170;-73
2022/03/18 00:17:25;;;;;;;14.27;4.85;;;3.60;99.90;;;;;;5056356;28;20048;-73
2022/03/18 00:19:51;;;;;;;9.57;4.03;;;3.60;99.90;;;;;;5056977;28;20048;-73
2022/03/18 00:22:17;;;;;;;14.15;4.40;;;3.60;99.90;;;;;;5025573;28;20109;-73
2022/03/18 00:24:42;;;;;;;18.10;4.15;;;3.50;99.90;;;;;;5035655;28;20079;-73
2022/03/18 00:27:09;;;;;;;10.52;3.60;;;3.50;99.90;;;;;;5044937;28;20492;-73
2022/03/18 00:29:35;;;;;;;14.43;4.47;;;3.50;99.90;;;;;;5034844;28;20086;-73
2022/03/18 00:32:01;;;;;;;14.00;3.53;;;3.50;99.90;;;;;;5043898;28;20503;-73
2022/03/18 00:34:27;;;;;;;12.00;4.82;;;3.50;99.90;;;;;;5053984;28;20048;-73
2022/03/18 00:36:54;;;;;;;13.68;4.32;;;3.40;99.90;;;;;;5043200;28;20787;-73
2022/03/18 00:39:20;;;;;;;17.05;4.63;;;3.40;99.90;;;;;;5046394;28;20772;-72
2022/03/18 00:41:46;;;;;;;13.35;4.10;;;3.40;99.90;;;;;;5026055;28;20049;-73
2022/03/18 00:44:13;;;;;;;13.25;4.32;;;3.40;99.90;;;;;;5030880;28;20055;-74
2022/03/18 00:46:39;;;;;;;12.18;4.43;;;3.40;99.90;;;;;;5024281;28;20053;-72
2022/03/18 00:52:05;;;;;;;16.30;4.88;;;3.40;99.90;;;;;;5042991;28;20055;-73
2022/03/18 00:54:37;;;;;;;19.63;5.95;;;3.40;99.90;;;;;;5051594;28;20520;-72
2022/03/18 00:57:04;;;;;;;11.27;4.93;;;3.40;99.90;;;;;;5026323;28;20775;-72
2022/03/18 00:59:31;;;;;;;13.60;5.40;;;3.30;99.90;;;;;;5028986;28;20055;-72
2022/03/18 01:01:57;;;;;;;15.27;4.63;;;3.30;99.90;;;;;;5055040;28;20090;-72
2022/03/18 01:04:25;;;;;;;13.25;3.80;;;3.30;99.90;;;;;;5037999;28;20037;-72
2022/03/18 01:06:52;;;;;;;15.30;5.10;;;3.30;99.90;;;;;;5066745;28;20052;-72
2022/03/18 01:09:20;;;;;;;10.88;4.55;;;3.20;99.90;;;;;;5053411;28;20048;-72
2022/03/18 01:11:46;;;;;;;13.98;5.78;;;3.30;99.90;;;;;;5033343;28;20049;-72
2022/03/18 01:14:12;;;;;;;14.38;4.95;;;3.20;99.90;;;;;;5052016;28;20404;-72
2022/03/18 01:16:38;;;;;;;15.77;5.68;;;3.20;99.90;;;;;;5041383;28;20076;-73
2022/03/18 01:19:03;;;;;;;16.98;5.53;;;3.20;99.90;;;;;;5051681;28;20381;-73
2022/03/18 01:21:29;;;;;;;15.70;5.53;;;3.20;99.90;;;;;;5059523;28;20484;-73
2022/03/18 01:23:54;;;;;;;17.35;6.45;;;3.20;99.90;;;;;;5055265;28;20135;-73
2022/03/18 01:26:20;;;;;;;15.63;5.25;;;3.20;99.90;;;;;;5046701;28;20806;-73
2022/03/18 01:28:46;;;;;;;20.77;6.47;;;3.20;99.90;;;;;;5034146;28;20057;-73
2022/03/18 01:31:11;;;;;;;14.52;5.10;;;3.10;99.90;;;;;;5027972;28;20344;-72
2022/03/18 01:33:37;;;;;;;11.95;5.25;;;3.10;99.90;;;;;;5048868;28;20139;-72
2022/03/18 01:36:06;;;;;;;15.40;5.30;;;3.10;99.90;;;;;;5049242;28;20396;-73
2022/03/18 01:38:32;;;;;;;16.58;6.30;;;3.10;99.90;;;;;;5039585;28;20550;-73
2022/03/18 01:40:57;;;;;;;15.95;5.78;;;3.20;99.90;;;;;;5041600;28;20075;-72
2022/03/18 01:43:23;;;;;;;16.30;5.80;;;3.10;99.90;;;;;;5044307;28;20072;-73
2022/03/18 01:45:51;;;;;;;10.95;6.28;;;3.10;99.90;;;;;;5028022;28;20095;-73
2022/03/18 01:48:20;;;;;;;18.92;7.43;;;3.10;99.90;;;;;;5029078;28;20056;-72
2022/03/18 01:50:45;;;;;;;16.98;7.05;;;3.10;99.90;;;;;;5045311;28;20045;-73
2022/03/18 01:53:12;;;;;;;21.63;7.55;;;3.10;99.90;;;;;;5040932;28;20053;-72
2022/03/18 01:55:37;;;;;;;16.48;6.57;;;3.10;99.90;;;;;;5045401;28;20115;-72
2022/03/18 01:58:04;;;;;;;14.98;6.55;;;3.10;99.90;;;;;;5056669;28;20670;-72
2022/03/18 02:00:30;;;;;;;14.65;6.63;;;3.00;99.90;;;;;;5022589;28;20127;-72
2022/03/18 02:02:55;;;;;;;15.18;6.32;;;3.00;99.90;;;;;;5018279;28;20067;-72
2022/03/18 02:05:21;;;;;;;18.35;7.72;;;3.00;99.90;;;;;;5046202;28;20040;-72
2022/03/18 02:07:47;;;;;;;22.88;6.53;;;2.70;99.90;;;;;;5028641;28;20093;-72
2022/03/18 02:10:13;;;;;;;19.17;6.72;;;3.00;99.90;;;;;;5048451;28;20131;-72
2022/03/18 02:12:39;;;;;;;19.38;7.43;;;2.90;99.90;;;;;;5043187;28;20128;-72
2022/03/18 02:15:05;;;;;;;15.88;7.45;;;3.00;99.90;;;;;;5023379;28;20048;-72
2022/03/18 02:17:31;;;;;;;13.35;6.32;;;3.00;99.90;;;;;;5042988;28;20587;-73
2022/03/18 02:19:57;;;;;;;16.65;7.15;;;2.90;99.90;;;;;;5044577;28;20039;-73
2022/03/18 02:22:24;;;;;;;16.27;6.78;;;2.90;99.90;;;;;;5051772;28;20408;-72
2022/03/18 02:24:52;;;;;;;17.13;7.22;;;3.00;99.90;;;;;;5051534;28;20055;-72
2022/03/18 02:27:19;;;;;;;15.15;6.45;;;2.90;99.90;;;;;;5059193;28;20044;-72
2022/03/18 02:29:45;;;;;;;15.80;6.82;;;2.80;99.90;;;;;;5063624;28;20793;-72
2022/03/18 02:32:13;;;;;;;14.10;5.97;;;2.80;99.90;;;;;;5043590;28;20393;-72
2022/03/18 02:34:40;;;;;;;23.30;8.35;;;2.90;99.90;;;;;;5027888;28;20614;-72
2022/03/18 02:37:07;;;;;;;14.02;6.32;;;2.80;99.90;;;;;;5034141;28;20868;-73
2022/03/18 02:39:33;;;;;;;15.20;6.85;;;2.80;99.90;;;;;;5058644;28;20782;-72
2022/03/18 02:41:58;;;;;;;14.43;6.78;;;2.80;99.90;;;;;;5040001;28;20040;-72
2022/03/18 02:44:24;;;;;;;17.05;7.00;;;2.80;99.90;;;;;;5042138;28;20040;-71
2022/03/18 02:46:50;;;;;;;20.50;8.00;;;2.80;99.90;;;;;;5041971;28;20044;-72
2022/03/18 02:49:16;;;;;;;16.25;7.60;;;2.80;99.90;;;;;;5019714;28;20810;-71
2022/03/18 02:51:42;;;;;;;15.00;7.35;;;2.80;99.90;;;;;;5022888;28;20060;-71
2022/03/18 02:54:09;;;;;;;14.50;6.75;;;2.80;99.90;;;;;;5028580;28;20576;-72
2022/03/18 02:56:36;;;;;;;17.30;7.65;;;2.70;99.90;;;;;;5020756;28;20712;-72
2022/03/18 02:59:03;;;;;;;16.55;7.05;;;2.70;99.90;;;;;;5020397;28;20756;-72
2022/03/18 03:01:30;;;;;;;16.30;7.28;;;2.70;99.90;;;;;;5022291;28;20126;-72
2022/03/18 03:03:57;;;;;;;18.92;6.97;;;2.70;99.90;;;;;;5025460;28;20815;-72
2022/03/18 03:09:07;;;;;;;16.25;6.72;;;2.70;99.90;;;;;;5016973;28;20487;-72
2022/03/18 03:11:33;;;;;;;17.17;7.40;;;2.70;99.90;;;;;;5022722;28;20053;-72
2022/03/18 03:13:59;;;;;;;17.45;7.78;;;2.60;99.90;;;;;;5030936;28;20133;-72
2022/03/18 03:16:25;;;;;;;16.48;7.38;;;2.60;99.90;;;;;;5029874;28;20863;-72
2022/03/18 03:18:50;;;;;;;16.58;7.25;;;2.60;99.90;;;;;;5028340;28;20053;-72
2022/03/18 03:21:16;;;;;;;16.75;6.93;;;2.60;99.90;;;;;;5031621;28;20041;-72
2022/03/18 03:23:42;;;;;;;18.25;6.95;;;2.60;99.90;;;;;;5027978;28;20068;-72
2022/03/18 03:26:08;;;;;;;13.43;7.20;;;2.60;99.90;;;;;;5030785;28;20049;-72
2022/03/18 03:28:34;;;;;;;13.43;6.57;;;2.60;99.90;;;;;;5031332;28;20070;-72
2022/03/18 03:31:00;;;;;;;17.63;7.15;;;2.50;99.90;;;;;;5024943;28;20449;-72
2022/03/18 03:33:26;;;;;;;18.92;7.65;;;2.50;99.90;;;;;;5032767;28;20110;-72
2022/03/18 03:35:53;;;;;;;14.52;6.95;;;2.50;99.90;;;;;;5034845;28;20120;-72
2022/03/18 03:38:20;;;;;;;15.90;6.93;;;2.50;99.90;;;;;;5024361;28;20057;-72
2022/03/18 03:40:47;;;;;;;15.23;7.13;;;2.60;99.90;;;;;;5023925;28;20095;-72
2022/03/18 03:43:13;;;;;;;14.10;7.43;;;2.50;99.90;;;;;;5024070;28;20057;-72
2022/03/18 03:45:39;;;;;;;14.40;6.97;;;2.50;99.90;;;;;;5023891;28;20053;-72
2022/03/18 03:48:06;;;;;;;17.20;7.75;;;2.50;99.90;;;;;;5027185;28;20075;-72
2022/03/18 03:50:32;;;;;;;15.55;7.13;;;2.40;99.90;;;;;;5048229;28;20053;-72
2022/03/18 03:52:58;;;;;;;13.90;7.20;;;2.40;99.90;;;;;;5042322;28;20151;-72
2022/03/18 03:55:24;;;;;;;16.35;7.43;;;2.40;99.90;;;;;;5033959;28;20066;-72
2022/03/18 03:57:49;;;;;;;13.77;6.78;;;2.40;99.90;;;;;;5057495;28;20056;-72
2022/03/18 04:00:15;;;;;;;13.70;7.43;;;2.40;99.90;;;;;;5026857;28;20131;-72
2022/03/18 04:02:43;;;;;;;14.40;7.13;;;2.30;99.90;;;;;;5051475;28;20047;-72
2022/03/18 04:05:10;;;;;;;15.10;7.07;;;2.10;99.90;;;;;;5049930;28;20049;-72
2022/03/18 04:07:41;;;;;;;14.43;7.50;;;2.30;99.90;;;;;;5044725;28;20101;-71
2022/03/18 04:10:08;;;;;;;13.85;7.00;;;2.30;99.90;;;;;;5033059;28;20159;-72
2022/03/18 04:12:35;;;;;;;14.98;7.50;;;2.30;99.90;;;;;;5029100;28;20037;-72
2022/03/18 04:15:05;;;;;;;18.67;7.10;;;2.30;99.90;;;;;;5053760;28;20052;-72
2022/03/18 04:17:41;;;;;;;17.35;7.72;;;2.30;99.90;;;;;;5024442;28;20053;-72
2022/03/18 04:20:09;;;;;;;15.20;6.90;;;2.20;99.90;;;;;;5047683;28;20057;-71
2022/03/18 04:22:35;;;;;;;17.35;6.97;;;2.20;99.90;;;;;;5024249;28;20797;-72
2022/03/18 04:25:01;;;;;;;16.83;7.38;;;2.20;99.90;;;;;;5050729;28;20635;-72
2022/03/18 04:27:26;;;;;;;15.52;7.60;;;2.20;99.90;;;;;;5045999;28;20044;-72
2022/03/18 04:29:53;;;;;;;17.48;7.15;;;2.20;99.90;;;;;;5050090;28;20091;-72
2022/03/18 04:32:19;;;;;;;16.85;6.35;;;2.20;99.90;;;;;;5049033;28;20098;-72
2022/03/18 04:34:44;;;;;;;16.17;7.50;;;2.20;99.90;;;;;;5028285;28;20147;-72
2022/03/18 04:37:10;;;;;;;16.92;7.22;;;2.20;99.90;;;;;;5056877;28;20041;-71
2022/03/18 04:39:35;;;;;;;13.90;6.90;;;2.10;99.90;;;;;;5047901;28;20485;-71
2022/03/18 04:42:01;;;;;;;16.38;7.30;;;2.20;99.90;;;;;;5042689;28;20465;-71
2022/03/18 04:44:27;;;;;;;16.25;7.05;;;2.20;99.90;;;;;;5067845;28;20495;-72
2022/03/18 04:46:52;;;;;;;16.13;6.70;;;2.80;99.90;;;;;;5028299;28;20049;-72
2022/03/18 04:49:18;;;;;;;15.02;7.38;;;2.10;99.90;;;;;;5027002;28;20820;-72
2022/03/18 04:51:44;;;;;;;17.08;6.90;;;2.20;99.90;;;;;;5050938;28;20668;-72
2022/03/18 04:54:09;;;;;;;13.95;7.00;;;2.10;99.90;;;;;;5041259;28;20778;-71
2022/03/18 04:59:19;;;;;;;14.02;7.13;;;2.10;99.90;;;;;;5041044;28;20061;-72
2022/03/18 05:01:46;;;;;;;17.35;6.85;;;2.10;99.90;;;;;;5041796;28;20050;-72
2022/03/18 05:04:12;;;;;;;13.60;6.80;;;2.10;99.90;;;;;;5032506;28;20056;-72
2022/03/18 05:06:37;;;;;;;13.55;6.65;;;2.10;99.90;;;;;;5049224;28;20040;-71
2022/03/18 05:09:03;;;;;;;13.15;6.28;;;2.20;99.90;;;;;;5041469;28;20070;-72
2022/03/18 05:11:29;;;;;;;22.88;7.43;;;2.10;99.90;;;;;;5033629;28;20084;-72
2022/03/18 05:13:55;;;;;;;12.48;7.55;;;2.10;99.90;;;;;;5048001;28;20045;-71
2022/03/18 05:16:21;;;;;;;13.95;6.75;;;2.20;99.90;;;;;;5022868;28;20040;-72
2022/03/18 05:18:46;;;;;;;13.73;7.93;;;2.20;99.90;;;;;;5031618;28;20063;-72
2022/03/18 05:21:14;;;;;;;16.45;7.60;;;2.20;99.90;;;;;;5039880;28;20060;-72
2022/03/18 05:23:40;;;;;;;15.48;8.07;;;2.10;99.90;;;;;;5053364;28;20049;-71
2022/03/18 05:26:05;;;;;;;16.23;8.02;;;2.10;99.90;;;;;;5055525;28;20047;-71
2022/03/18 05:28:31;;;;;;;13.18;7.10;;;2.10;99.90;;;;;;5030391;28;20083;-72
2022/03/18 05:30:58;;;;;;;16.38;7.93;;;2.10;99.90;;;;;;5041507;28;20157;-71
2022/03/18 05:33:24;;;;;;;17.08;8.35;;;2.10;99.90;;;;;;5033322;28;20106;-71
2022/03/18 05:35:49;;;;;;;17.27;7.97;;;2.10;99.90;;;;;;5033954;28;20041;-72
2022/03/18 05:38:15;;;;;;;17.98;7.60;;;2.10;99.90;;;;;;5045516;28;20480;-71
2022/03/18 05:40:41;;;;;;;17.17;8.57;;;2.10;99.90;;;;;;5030268;28;20085;-71
2022/03/18 05:43:07;;;;;;;16.58;8.15;;;2.00;99.90;;;;;;5055363;28;20758;-72
2022/03/18 05:45:33;;;;;;;15.73;7.05;;;2.00;99.90;;;;;;5051066;28;20048;-71
2022/03/18 05:47:59;;;;;;;13.70;7.40;;;2.00;99.90;;;;;;5051676;28;20067;-72
2022/03/18 05:50:25;;;;;;;13.65;7.30;;;2.00;99.90;;;;;;5030566;28;20839;-71
2022/03/18 05:52:51;;;;;;;13.98;8.05;;;2.00;99.90;;;;;;5054083;28;20045;-71
2022/03/18 05:55:16;;;;;;;17.80;9.02;;;1.90;99.90;;;;;;5040479;28;20117;-72
2022/03/18 05:57:43;;;;;;;13.18;7.43;;;1.90;99.90;;;;;;5027021;28;20126;-71
2022/03/18 06:00:09;;;;;;;15.07;7.90;;;1.90;99.90;;;;;;5054549;28;20083;-71
2022/03/18 06:02:35;;;;;;;15.80;7.57;;;1.90;99.90;;;;;;5047075;28;20048;-72
2022/03/18 06:05:02;;;;;;;15.60;8.55;;;1.90;99.90;;;;;;5046848;28;20036;-72
2022/03/18 06:07:28;;;;;;;17.27;8.82;;;2.10;99.90;;;;;;5034762;28;20052;-71
2022/03/18 06:12:38;;;;;;;21.98;8.93;;;1.90;99.90;;;;;;5046830;28;20773;-71
2022/03/18 06:15:04;;;;;;;17.15;8.90;;;2.10;99.90;;;;;;5046898;28;20049;-71
2022/03/18 06:17:29;;;;;;;19.88;9.35;;;1.90;99.90;;;;;;5056611;28;20651;-71
2022/03/18 06:19:55;;;;;;;19.48;9.27;;;1.90;99.90;;;;;;5055836;28;20052;-72
2022/03/18 06:22:21;;;;;;;18.27;9.45;;;1.90;99.90;;;;;;5039912;28;20037;-71
2022/03/18 06:24:46;;;;;;;21.40;8.57;;;2.00;99.90;;;;;;5028451;28;20057;-72
2022/03/18 06:27:13;;;;;;;15.98;8.90;;;2.00;99.90;;;;;;5034121;28;20063;-71
2022/03/18 06:29:42;;;;;;;16.50;9.57;;;2.00;99.90;;;;;;5033386;28;20065;-72
2022/03/18 06:32:09;;;;;;;16.98;9.35;;;2.00;99.90;;;;;;5028404;28;20115;-73
2022/03/18 06:34:36;;;;;;;19.90;10.27;;;2.00;99.90;;;;;;5027262;28;20048;-73
2022/03/18 06:37:02;;;;;;;18.98;10.52;;;2.10;99.90;;;;;;5021912;28;20041;-72
2022/03/18 06:39:27;;;;;;;16.92;9.63;;;2.10;99.90;;;;;;5025004;28;20056;-72
2022/03/18 06:41:54;;;;;;;17.60;10.93;;;2.10;99.90;;;;;;5051894;28;20071;-73
2022/03/18 06:44:20;;;;;;;20.80;12.05;;;2.10;99.90;;;;;;5048683;28;20690;-72
2022/03/18 06:46:46;;;;;;;19.23;12.57;;;2.10;99.90;;;;;;5028977;28;20080;-73
2022/03/18 06:49:13;;;;;;;19.40;12.75;;;2.20;99.90;;;;;;5030789;28;20067;-73
2022/03/18 06:51:39;;;;;;;23.00;12.52;;;2.30;99.90;;;;;;5037998;28;20774;-72
2022/03/18 06:54:05;;;;;;;20.95;11.88;;;2.40;99.90;;;;;;5026855;28;20053;-72
2022/03/18 06:56:32;;;;;;;21.67;13.23;;;2.50;99.90;;;;;;5047827;28;21073;-72
2022/03/18 06:58:57;;;;;;;23.73;13.32;;;2.60;99.90;;;;;;5049158;28;20040;-71
2022/03/18 07:01:24;;;;;;;22.75;13.55;;;2.70;99.90;;;;;;5029128;28;20041;-72
2022/03/18 07:03:50;;;;;;;21.77;13.30;;;2.80;99.90;;;;;;5050437;28;20097;-72
2022/03/18 07:06:16;;;;;;;27.33;14.35;;;3.00;99.90;;;;;;5058297;28;20045;-74
2022/03/18 07:08:42;;;;;;;23.48;14.07;;;2.90;99.90;;;;;;5055195;28;20122;-75
2022/03/18 07:11:07;;;;;;;20.95;13.32;;;3.00;99.90;;;;;;5031998;28;20033;-72
2022/03/18 07:13:33;;;;;;;24.13;14.50;;;3.00;99.90;;;;;;5049996;28;20043;-75
2022/03/18 07:17:54;;;;;;;25.13;14.15;;;3.10;99.90;;;;;;5034585;28;20049;-75
2022/03/18 07:18:45;;;;;;;24.55;13.93;;;3.20;99.90;;;;;;5026832;28;20048;-74
2022/03/18 07:21:11;;;;;;;22.27;13.63;;;3.20;99.90;;;;;;5052284;28;20258;-75
2022/03/18 07:23:36;;;;;;;21.98;13.13;;;3.30;99.90;;;;;;5046250;28;20771;-74
2022/03/18 07:26:02;;;;;;;27.83;14.65;;;3.30;99.90;;;;;;5030831;28;20122;-74
2022/03/18 07:28:28;;;;;;;23.05;14.77;;;3.40;99.90;;;;;;5042887;28;20610;-74
2022/03/18 07:30:53;;;;;;;27.23;15.23;;;3.40;99.90;;;;;;5060982;28;20147;-73
2022/03/18 07:33:19;;;;;;;26.50;15.23;;;3.50;99.90;;;;;;5040062;28;20060;-74
2022/03/18 07:35:44;;;;;;;23.58;14.75;;;3.60;99.90;;;;;;5043438;28;20049;-74
2022/03/18 07:38:10;;;;;;;29.35;16.75;;;3.70;99.90;;;;;;5024289;28;20056;-73
2022/03/18 07:40:37;;;;;;;35.58;16.83;;;3.70;99.90;;;;;;5041574;28;20074;-74
2022/03/18 07:43:05;;;;;;;31.48;17.00;;;3.80;99.90;;;;;;5043099;28;20052;-74
2022/03/18 07:45:32;;;;;;;27.40;17.30;;;3.90;99.90;;;;;;5061627;28;20063;-74
2022/03/18 07:48:00;;;;;;;25.30;17.45;;;4.00;99.90;;;;;;5061597;28;20556;-74
2022/03/18 07:50:28;;;;;;;25.88;16.15;;;4.10;99.90;;;;;;5061214;28;20052;-74
2022/03/18 07:52:56;;;;;;;25.95;17.38;;;4.20;99.90;;;;;;5061760;28;20071;-74
2022/03/18 07:55:24;;;;;;;28.63;17.52;;;4.30;99.90;;;;;;5030738;28;20080;-74
2022/03/18 07:57:51;;;;;;;25.02;16.90;;;4.40;99.90;;;;;;5061687;28;20548;-74
2022/03/18 08:00:17;;;;;;;32.50;17.70;;;4.50;99.90;;;;;;5059612;28;20067;-74
2022/03/18 08:02:45;;;;;;;26.95;17.83;;;4.60;99.90;;;;;;5057390;28;20040;-74
2022/03/18 08:05:12;;;;;;;28.25;17.70;;;4.80;99.90;;;;;;5060798;28;20177;-74
2022/03/18 08:07:39;;;;;;;29.55;18.40;;;4.70;99.90;;;;;;5057728;28;20048;-74
2022/03/18 08:10:06;;;;;;;21.42;13.43;;;4.90;99.90;;;;;;5058365;28;20063;-74
2022/03/18 08:12:31;;;;;;;31.63;18.13;;;5.10;99.90;;;;;;5061152;28;20471;-74
2022/03/18 08:14:58;;;;;;;26.48;17.38;;;5.40;99.90;;;;;;5061750;28;20503;-74
2022/03/18 08:17:24;;;;;;;28.55;17.17;;;5.30;99.90;;;;;;5061074;28;20785;-74
2022/03/18 08:19:51;;;;;;;28.33;17.48;;;5.50;99.90;;;;;;5040838;28;20625;-74
2022/03/18 08:22:21;;;;;;;28.48;17.02;;;5.70;99.90;;;;;;5041301;28;20056;-74
2022/03/18 08:24:50;;;;;;;32.20;17.83;;;5.70;99.90;;;;;;5041827;28;20041;-74
2022/03/18 08:27:16;;;;;;;31.58;18.30;;;5.90;99.90;;;;;;5040904;28;20060;-74
2022/03/18 08:29:42;;;;;;;34.05;16.85;;;6.00;99.90;;;;;;5022890;28;20045;-74
2022/03/18 08:32:11;;;;;;;24.63;14.88;;;6.10;99.90;;;;;;5041837;28;20111;-74
2022/03/18 08:34:37;;;;;;;26.23;15.18;;;6.20;99.90;;;;;;5040975;28;20049;-74
2022/03/18 08:37:05;;;;;;;24.63;15.77;;;6.30;99.90;;;;;;5040857;28;20083;-74
2022/03/18 08:39:32;;;;;;;26.52;16.75;;;6.40;99.90;;;;;;5057192;28;20066;-74
2022/03/18 08:41:57;;;;;;;34.75;16.92;;;6.50;99.90;;;;;;5061100;28;20049;-74
2022/03/18 08:44:23;;;;;;;35.92;17.90;;;6.60;99.90;;;;;;5061180;28;20115;-74
2022/03/18 08:46:49;;;;;;;26.58;16.65;;;6.80;99.90;;;;;;5053247;28;20072;-74
2022/03/18 08:49:15;;;;;;;32.53;17.58;;;6.80;99.90;;;;;;5046109;28;20907;-75
2022/03/18 08:51:41;;;;;;;30.38;16.45;;;7.00;99.90;;;;;;5023586;28;20668;-74
2022/03/18 08:54:06;;;;;;;28.25;15.23;;;7.10;99.90;;;;;;5055401;28;20053;-74
2022/03/18 08:56:32;;;;;;;28.40;15.18;;;7.20;99.90;;;;;;5057544;28;20040;-74
2022/03/18 08:58:58;;;;;;;33.72;16.48;;;7.20;99.90;;;;;;5061111;28;20554;-74
2022/03/18 09:01:25;;;;;;;32.47;15.98;;;7.30;99.90;;;;;;5060285;28;20037;-74
2022/03/18 09:03:51;;;;;;;34.50;16.45;;;7.40;99.90;;;;;;5034255;28;20144;-74
2022/03/18 09:06:16;;;;;;;30.00;14.68;;;7.50;99.90;;;;;;5055402;28;20136;-74
2022/03/18 09:08:43;;;;;;;28.45;13.80;;;7.60;99.90;;;;;;5047802;28;20567;-74
2022/03/18 09:11:09;;;;;;;25.55;13.77;;;7.70;99.90;;;;;;5060357;28;20048;-74
2022/03/18 09:13:35;;;;;;;26.90;15.05;;;7.90;99.90;;;;;;5060200;28;20055;-74
2022/03/18 09:16:02;;;;;;;27.08;14.27;;;7.40;99.90;;;;;;5059036;28;20063;-74
2022/03/18 09:18:28;;;;;;;27.83;14.70;;;8.10;99.90;;;;;;5052898;28;20053;-74
2022/03/18 09:20:54;;;;;;;27.15;14.10;;;8.20;99.90;;;;;;5040489;28;20542;-74
2022/03/18 09:23:19;;;;;;;29.13;14.02;;;8.40;99.90;;;;;;5052151;28;20044;-74
2022/03/18 09:25:45;;;;;;;20.85;13.23;;;8.60;99.90;;;;;;5060200;28;20858;-74
2022/03/18 09:28:10;;;;;;;29.45;12.23;;;8.70;99.90;;;;;;5042009;28;20706;-74
2022/03/18 09:30:36;;;;;;;29.10;12.15;;;9.00;99.90;;;;;;5059315;28;20052;-74
2022/03/18 09:33:02;;;;;;;29.20;11.30;;;9.10;99.90;;;;;;5047917;28;20047;-74
2022/03/18 09:35:28;;;;;;;25.70;12.55;;;9.30;99.90;;;;;;5021778;28;20060;-74
2022/03/18 09:37:53;;;;;;;26.40;12.00;;;9.50;99.90;;;;;;5028725;28;20778;-74
2022/03/18 09:40:19;;;;;;;22.98;12.25;;;9.70;99.90;;;;;;5039774;28;20126;-74
2022/03/18 09:43:00;;;;;;;24.67;12.68;;;9.80;99.90;;;;;;5040013;28;20504;-74
2022/03/18 09:45:31;;;;;;;27.95;12.63;;;10.00;99.90;;;;;;5038952;28;20048;-74
2022/03/18 09:48:02;;;;;;;25.77;12.13;;;10.10;99.90;;;;;;5039770;28;20094;-74
2022/03/18 09:50:30;;;;;;;21.92;12.63;;;10.20;99.90;;;;;;5032932;28;20063;-74
2022/03/18 09:52:56;;;;;;;22.08;12.15;;;10.40;99.90;;;;;;5054906;28;20056;-74
2022/03/18 09:55:22;;;;;;;21.65;11.48;;;10.50;99.90;;;;;;5041460;28;20145;-75
2022/03/18 09:57:48;;;;;;;23.13;11.32;;;10.60;99.90;;;;;;5059718;28;20049;-74
2022/03/18 10:00:15;;;;;;;24.55;11.00;;;10.80;99.90;;;;;;5055201;28;20037;-74
2022/03/18 10:02:41;;;;;;;29.13;11.70;;;10.90;99.90;;;;;;5034877;28;20049;-74
2022/03/18 10:05:14;;;;;;;19.17;10.60;;;11.00;99.90;;;;;;5044770;28;20075;-74
2022/03/18 10:07:53;;;;;;;21.10;10.98;;;11.20;99.90;;;;;;5059378;28;20051;-74
2022/03/18 10:10:20;;;;;;;23.27;10.80;;;11.30;99.90;;;;;;5037729;28;20072;-74
2022/03/18 10:12:54;;;;;;;21.75;11.25;;;11.30;99.90;;;;;;5037982;28;20056;-74
2022/03/18 10:15:22;;;;;;;28.75;11.00;;;11.60;99.90;;;;;;5046316;28;20158;-75
2022/03/18 10:17:55;;;;;;;20.30;9.75;;;11.70;99.90;;;;;;5039083;28;20063;-75
2022/03/18 10:20:35;;;;;;;18.65;9.02;;;11.80;99.90;;;;;;5038909;28;20088;-74
2022/03/18 10:23:23;;;;;;;21.77;9.10;;;12.00;99.90;;;;;;5053354;28;20059;-75
2022/03/18 10:25:55;;;;;;;18.80;9.93;;;12.10;99.90;;;;;;5040592;28;20483;-74
2022/03/18 10:28:40;;;;;;;19.02;9.73;;;12.20;99.90;;;;;;5054693;28;20087;-75
2022/03/18 10:31:23;;;;;;;17.52;9.30;;;12.30;99.90;;;;;;5039372;28;20053;-74
2022/03/18 10:39:27;;;;;;;24.15;9.27;;;12.70;99.90;;;;;;5036891;28;20044;-75
2022/03/18 10:41:53;;;;;;;21.00;8.88;;;12.80;99.90;;;;;;5039343;28;20487;-75
2022/03/18 10:44:19;;;;;;;20.15;8.98;;;12.90;99.90;;;;;;5038615;28;20033;-75
2022/03/18 10:46:47;;;;;;;20.27;8.57;;;13.10;99.90;;;;;;5039069;28;20129;-75
2022/03/18 10:49:13;;;;;;;16.02;9.07;;;13.10;99.90;;;;;;5035623;28;20057;-74
2022/03/18 10:51:40;;;;;;;18.80;9.15;;;13.20;99.90;;;;;;5039205;28;20777;-75
2022/03/18 10:54:06;;;;;;;21.05;10.23;;;13.30;99.90;;;;;;5048305;28;20055;-75
2022/03/18 10:56:51;;;;;;;18.30;8.88;;;13.50;99.90;;;;;;5055434;28;20040;-75
2022/03/18 10:59:17;;;;;;;16.73;7.63;;;13.60;99.90;;;;;;5034605;28;20057;-75
2022/03/18 11:01:46;;;;;;;19.70;8.98;;;13.70;99.90;;;;;;5055975;28;20055;-74
2022/03/18 11:04:14;;;;;;;20.10;9.43;;;13.70;99.90;;;;;;5053903;28;20374;-75
2022/03/18 11:06:40;;;;;;;21.63;8.52;;;13.80;99.90;;;;;;5058671;28;20093;-75
2022/03/18 11:09:08;;;;;;;24.05;9.00;;;14.00;99.90;;;;;;5050605;28;20135;-75
2022/03/18 11:11:33;;;;;;;25.33;9.60;;;14.00;99.90;;;;;;5049172;28;20052;-74
2022/03/18 11:14:10;;;;;;;17.38;8.05;;;14.10;99.90;;;;;;5053557;28;20052;-75
2022/03/18 11:16:39;;;;;;;17.85;8.52;;;14.20;99.90;;;;;;5049401;28;20049;-75
2022/03/18 11:19:09;;;;;;;15.50;7.85;;;14.30;99.90;;;;;;5040355;28;20033;-75
2022/03/18 11:21:38;;;;;;;17.42;7.15;;;14.40;99.90;;;;;;5040243;28;20052;-75
2022/03/18 11:24:06;;;;;;;18.95;8.38;;;14.50;99.90;;;;;;5047707;28;20571;-75
2022/03/18 11:26:34;;;;;;;16.38;8.25;;;14.50;99.90;;;;;;5050766;28;20056;-75
2022/03/18 11:29:07;;;;;;;14.27;8.25;;;14.60;99.90;;;;;;5042312;28;20057;-75
2022/03/18 11:31:36;;;;;;;15.75;6.95;;;14.80;99.90;;;;;;5054867;28;20052;-75
2022/03/18 11:34:14;;;;;;;15.73;7.13;;;14.80;99.90;;;;;;5045339;28;20049;-75
2022/03/18 11:37:10;;;;;;;15.82;7.60;;;14.90;99.90;;;;;;5038448;28;20088;-75
2022/03/18 11:39:35;;;;;;;19.73;8.45;;;15.10;99.90;;;;;;5039632;28;20056;-75
2022/03/18 11:42:08;;;;;;;17.80;7.45;;;15.20;99.90;;;;;;5026015;28;20764;-75
2022/03/18 11:44:45;;;;;;;15.70;6.93;;;15.20;99.90;;;;;;5044617;28;20048;-75
2022/03/18 11:47:22;;;;;;;15.75;6.65;;;15.30;99.90;;;;;;5052069;28;20123;-75
2022/03/18 11:49:48;;;;;;;14.98;7.07;;;15.40;99.90;;;;;;5042947;28;20049;-75
2022/03/18 11:52:14;;;;;;;14.48;6.53;;;15.50;99.90;;;;;;5052712;28;20036;-75
2022/03/18 11:54:50;;;;;;;16.02;6.50;;;15.60;99.90;;;;;;5052570;28;20051;-75
2022/03/18 11:57:43;;;;;;;18.65;6.97;;;15.60;99.90;;;;;;5030173;28;20090;-76
2022/03/18 12:00:32;;;;;;;16.58;7.38;;;15.70;99.90;;;;;;5039279;28;20061;-76
2022/03/18 12:03:00;;;;;;;12.98;6.28;;;15.80;99.90;;;;;;5052139;28;20404;-76
2022/03/18 12:05:30;;;;;;;17.73;7.90;;;15.90;99.90;;;;;;5029830;28;20060;-76
2022/03/18 12:07:57;;;;;;;15.40;7.97;;;16.00;99.90;;;;;;5057056;28;20048;-76
2022/03/18 12:10:34;;;;;;;18.52;7.88;;;16.10;99.90;;;;;;5053132;28;20793;-76
2022/03/18 12:13:02;;;;;;;14.73;5.68;;;16.50;99.90;;;;;;5044903;28;20106;-77
2022/03/18 12:15:29;;;;;;;12.43;6.40;;;16.40;99.90;;;;;;5044816;28;20068;-77
2022/03/18 12:17:57;;;;;;;13.52;6.15;;;16.30;99.90;;;;;;5053783;28;20044;-76
2022/03/18 12:20:25;;;;;;;15.77;6.50;;;16.20;99.90;;;;;;5047669;28;20041;-75
2022/03/18 12:22:53;;;;;;;11.73;5.88;;;16.20;99.90;;;;;;5055020;28;20063;-75
2022/03/18 12:25:20;;;;;;;16.52;6.50;;;16.20;99.90;;;;;;5050607;28;20048;-74
2022/03/18 12:27:46;;;;;;;15.60;5.85;;;16.20;99.90;;;;;;5053567;28;20060;-75
2022/03/18 12:30:17;;;;;;;14.82;5.97;;;16.20;99.90;;;;;;5053885;28;20498;-75
2022/03/18 12:33:04;;;;;;;16.15;6.22;;;16.00;99.90;;;;;;5040517;28;20148;-74
2022/03/18 12:35:32;;;;;;;14.77;5.72;;;15.90;99.90;;;;;;5047161;28;20044;-74
2022/03/18 12:38:07;;;;;;;14.35;5.88;;;15.90;99.90;;;;;;5034560;28;20048;-75
2022/03/18 12:40:35;;;;;;;14.95;6.20;;;15.90;99.90;;;;;;5046392;28;20044;-74
2022/03/18 12:43:03;;;;;;;13.10;5.93;;;16.10;99.90;;;;;;5059621;28;20052;-75
2022/03/18 12:45:39;;;;;;;13.82;5.78;;;16.20;99.90;;;;;;5046001;28;20048;-75
2022/03/18 12:48:08;;;;;;;13.32;6.35;;;16.30;99.90;;;;;;5028940;28;20049;-75
2022/03/18 12:50:36;;;;;;;10.77;6.38;;;16.40;99.90;;;;;;5047679;28;20045;-75
2022/03/18 12:53:22;;;;;;;14.85;6.72;;;16.50;99.90;;;;;;5030796;28;20048;-75
2022/03/18 12:55:56;;;;;;;18.83;7.18;;;16.60;99.90;;;;;;5029220;28;20048;-75
2022/03/18 12:58:25;;;;;;;15.00;6.95;;;16.70;99.90;;;;;;5035544;28;20049;-75